Time;durP1;ratioP1;P1;durP2;ratioP2;P2;SDS_P1;SDS_P2;PMS_P1;PMS_P2;Temp;Humidity;BMP_temperature;BMP_pressure;BME280_temperature;BME280_humidity;BME280_pressure;Samples;Min_cycle;Max_cycle;Signal;HPM_P1;HPM_P2
2022/08/28 00:02:05;;;;;;;7.25;3.30;;;19.60;57.90;;;;;;5092470;28;20120;-66
2022/08/28 00:04:31;;;;;;;10.35;3.80;;;19.50;57.90;;;;;;5093867;28;20419;-65
2022/08/28 00:06:57;;;;;;;7.35;3.08;;;19.50;58.00;;;;;;5087897;28;20322;-65
2022/08/28 00:09:23;;;;;;;9.63;4.00;;;19.50;58.00;;;;;;5076405;28;20368;-66
2022/08/28 00:11:49;;;;;;;8.30;3.70;;;19.50;58.10;;;;;;5090873;28;20178;-66
2022/08/28 00:14:17;;;;;;;8.63;3.38;;;19.50;58.20;;;;;;5093589;28;20419;-66
2022/08/28 00:16:44;;;;;;;10.57;3.72;;;19.50;58.20;;;;;;5093102;28;20035;-66
2022/08/28 00:19:10;;;;;;;8.23;3.35;;;19.50;58.30;;;;;;5092514;28;20035;-66
2022/08/28 00:21:36;;;;;;;10.93;4.20;;;19.50;58.40;;;;;;5086000;28;20024;-65
2022/08/28 00:24:02;;;;;;;8.55;3.60;;;19.50;58.50;;;;;;5086856;28;20448;-65
2022/08/28 00:29:12;;;;;;;8.73;3.38;;;19.40;58.50;;;;;;5070160;28;20117;-66
2022/08/28 00:31:38;;;;;;;12.93;4.18;;;19.40;58.60;;;;;;5086828;28;20063;-65
2022/08/28 00:34:06;;;;;;;9.18;3.22;;;19.40;58.70;;;;;;5075228;28;20036;-65
2022/08/28 00:36:32;;;;;;;10.23;3.38;;;19.40;58.70;;;;;;5091851;28;20074;-65
2022/08/28 00:38:59;;;;;;;10.98;3.45;;;19.40;58.80;;;;;;5092809;28;20024;-66
2022/08/28 00:41:27;;;;;;;9.20;3.00;;;19.30;58.80;;;;;;5090887;28;20169;-66
2022/08/28 00:44:05;;;;;;;10.27;3.70;;;19.30;58.90;;;;;;5087695;28;20029;-66
2022/08/28 00:46:31;;;;;;;11.18;3.35;;;19.30;59.00;;;;;;5080338;28;20055;-65
2022/08/28 00:48:56;;;;;;;8.10;3.08;;;19.30;59.00;;;;;;5093640;28;20066;-65
2022/08/28 00:54:08;;;;;;;9.25;3.08;;;19.20;59.20;;;;;;5075736;28;20522;-65
2022/08/28 00:56:34;;;;;;;9.50;2.95;;;19.20;59.20;;;;;;5089805;28;20032;-66
2022/08/28 00:59:14;;;;;;;8.60;3.15;;;19.20;59.20;;;;;;5095750;28;20035;-65
2022/08/28 01:01:41;;;;;;;9.40;3.25;;;19.20;59.30;;;;;;5087112;28;20357;-65
2022/08/28 01:04:07;;;;;;;8.38;3.30;;;19.20;59.40;;;;;;5096269;28;20430;-65
2022/08/28 01:06:36;;;;;;;7.82;2.80;;;19.20;59.50;;;;;;5092985;28;20115;-65
2022/08/28 01:09:02;;;;;;;7.18;3.30;;;19.10;59.50;;;;;;5095536;28;20127;-65
2022/08/28 01:11:30;;;;;;;8.85;2.85;;;19.10;59.60;;;;;;5095631;28;20374;-66
2022/08/28 01:13:58;;;;;;;8.77;3.10;;;19.10;59.70;;;;;;5095448;28;20032;-65
2022/08/28 01:16:25;;;;;;;10.32;2.72;;;19.10;59.70;;;;;;5093784;28;20028;-65
2022/08/28 01:18:52;;;;;;;10.57;3.22;;;19.10;59.80;;;;;;5078778;28;20078;-65
2022/08/28 01:21:22;;;;;;;9.75;3.03;;;19.00;59.80;;;;;;5097364;28;20039;-65
2022/08/28 01:23:58;;;;;;;8.07;2.90;;;19.00;59.90;;;;;;5094803;28;20036;-65
2022/08/28 01:26:27;;;;;;;9.13;2.95;;;19.00;60.00;;;;;;5085880;28;20088;-65
2022/08/28 01:28:53;;;;;;;10.60;3.30;;;19.00;60.00;;;;;;5095763;28;20032;-65
2022/08/28 01:31:19;;;;;;;8.82;3.55;;;19.00;60.00;;;;;;5096166;28;20426;-65
2022/08/28 01:33:46;;;;;;;6.78;2.70;;;19.00;60.10;;;;;;5091250;28;20418;-65
2022/08/28 01:36:13;;;;;;;9.57;3.05;;;18.90;60.20;;;;;;5093321;28;20356;-66
2022/08/28 01:38:41;;;;;;;6.50;3.10;;;18.90;60.20;;;;;;5094989;28;20099;-66
2022/08/28 01:41:07;;;;;;;8.75;2.75;;;18.90;60.30;;;;;;5069437;28;20024;-65
2022/08/28 01:43:33;;;;;;;8.75;3.00;;;18.90;60.30;;;;;;5093551;28;20035;-65
2022/08/28 01:46:03;;;;;;;8.32;2.95;;;18.90;60.40;;;;;;5086364;28;20048;-66
2022/08/28 01:48:34;;;;;;;9.13;2.95;;;18.90;60.40;;;;;;5089629;28;20432;-65
2022/08/28 01:51:00;;;;;;;;;;;18.90;60.50;;;;;;5093192;28;20032;-65
2022/08/28 01:53:27;;;;;;;9.02;3.13;;;18.80;60.40;;;;;;5083509;28;20002;-65
2022/08/28 01:55:55;;;;;;;6.85;2.80;;;18.80;60.50;;;;;;5093372;28;20127;-65
2022/08/28 01:58:22;;;;;;;7.13;2.75;;;18.80;60.60;;;;;;5078003;28;20483;-65
2022/08/28 02:00:52;;;;;;;7.97;3.10;;;18.80;61.30;;;;;;5092885;28;20395;-65
2022/08/28 02:03:20;;;;;;;9.15;2.60;;;18.80;60.70;;;;;;5092508;28;20412;-65
2022/08/28 02:05:46;;;;;;;8.88;3.28;;;18.70;60.70;;;;;;5093971;28;20024;-65
2022/08/28 02:08:13;;;;;;;8.63;2.90;;;18.70;60.80;;;;;;5093180;28;20467;-66
2022/08/28 02:10:40;;;;;;;8.10;3.10;;;18.70;60.90;;;;;;5096031;28;20035;-66
2022/08/28 02:13:07;;;;;;;11.63;3.25;;;18.70;61.10;;;;;;5084531;28;20041;-66
2022/08/28 02:15:34;;;;;;;8.25;3.03;;;18.70;61.10;;;;;;5093735;28;20024;-65
2022/08/28 02:18:01;;;;;;;8.93;2.90;;;18.70;61.10;;;;;;5056219;28;20029;-65
2022/08/28 02:20:28;;;;;;;7.20;2.83;;;18.70;61.30;;;;;;5094067;28;20058;-66
2022/08/28 02:22:56;;;;;;;9.48;3.20;;;18.70;61.30;;;;;;5093991;28;20506;-65
2022/08/28 02:25:22;;;;;;;11.50;3.30;;;18.60;61.30;;;;;;5092267;28;20039;-65
2022/08/28 02:27:48;;;;;;;7.10;2.75;;;18.60;61.40;;;;;;5093914;28;20051;-65
2022/08/28 02:30:16;;;;;;;9.40;2.80;;;18.60;61.40;;;;;;5069130;28;20028;-65
2022/08/28 02:32:43;;;;;;;10.57;3.25;;;18.60;61.50;;;;;;5068539;28;20028;-66
2022/08/28 02:35:10;;;;;;;8.90;2.63;;;18.60;61.50;;;;;;5093443;28;20032;-65
2022/08/28 02:37:37;;;;;;;9.10;2.85;;;18.50;61.50;;;;;;5076869;28;20032;-65
2022/08/28 02:40:03;;;;;;;8.68;2.83;;;18.50;61.50;;;;;;5066106;28;20325;-65
2022/08/28 02:42:28;;;;;;;9.82;2.83;;;18.60;61.60;;;;;;5077925;28;20032;-65
2022/08/28 02:44:54;;;;;;;7.95;2.60;;;18.50;61.60;;;;;;5090683;28;20035;-65
2022/08/28 02:47:20;;;;;;;9.45;3.25;;;18.50;61.70;;;;;;5092126;28;20068;-65
2022/08/28 02:49:45;;;;;;;8.68;2.65;;;18.50;61.80;;;;;;5082668;28;20032;-66
2022/08/28 02:52:11;;;;;;;6.78;2.60;;;18.50;61.90;;;;;;5094347;28;20032;-65
2022/08/28 02:54:38;;;;;;;6.63;2.58;;;18.50;61.90;;;;;;5091753;28;20028;-65
2022/08/28 02:57:08;;;;;;;9.43;2.60;;;18.40;61.90;;;;;;5058514;28;20024;-65
2022/08/28 02:59:35;;;;;;;8.27;2.95;;;18.40;61.90;;;;;;5093277;28;20445;-65
2022/08/28 03:02:02;;;;;;;10.50;3.33;;;18.40;62.00;;;;;;5086931;28;20365;-65
2022/08/28 03:04:30;;;;;;;7.35;2.50;;;18.40;62.00;;;;;;5051644;28;20029;-65
2022/08/28 03:06:56;;;;;;;6.30;2.55;;;18.40;62.10;;;;;;5092684;28;20110;-65
2022/08/28 03:09:22;;;;;;;10.18;3.38;;;18.40;62.10;;;;;;5076192;28;20024;-65
2022/08/28 03:11:48;;;;;;;9.77;3.33;;;18.40;62.20;;;;;;5093925;28;20477;-65
2022/08/28 03:14:13;;;;;;;7.35;2.72;;;18.30;62.20;;;;;;5064876;28;20097;-65
2022/08/28 03:16:39;;;;;;;7.32;2.50;;;18.30;62.30;;;;;;5081005;28;20093;-65
2022/08/28 03:19:05;;;;;;;7.57;2.30;;;18.30;62.30;;;;;;5082325;28;20043;-65
2022/08/28 03:21:31;;;;;;;7.70;2.75;;;18.30;62.40;;;;;;5071977;28;20107;-65
2022/08/28 03:23:56;;;;;;;9.73;3.03;;;18.30;62.40;;;;;;5087492;28;20028;-66
2022/08/28 03:26:23;;;;;;;10.25;2.75;;;18.30;62.50;;;;;;5089275;28;20071;-65
2022/08/28 03:28:52;;;;;;;7.90;2.80;;;18.30;62.60;;;;;;5078746;28;20037;-65
2022/08/28 03:31:20;;;;;;;8.38;2.58;;;18.30;62.60;;;;;;5078084;28;20028;-65
2022/08/28 03:33:47;;;;;;;9.45;2.72;;;18.20;62.70;;;;;;5086213;28;20535;-65
2022/08/28 03:36:16;;;;;;;7.95;2.60;;;18.20;62.70;;;;;;5072346;28;20111;-65
2022/08/28 03:38:42;;;;;;;9.38;2.75;;;18.20;62.70;;;;;;5089905;28;20026;-65
2022/08/28 03:41:13;;;;;;;8.88;3.03;;;18.20;62.80;;;;;;5058259;28;20028;-65
2022/08/28 03:43:39;;;;;;;9.02;2.75;;;18.20;62.80;;;;;;5088178;28;20036;-65
2022/08/28 03:46:06;;;;;;;6.85;2.55;;;18.20;62.80;;;;;;5084469;28;20059;-65
2022/08/28 03:48:35;;;;;;;6.28;2.58;;;18.20;62.80;;;;;;5069869;28;20449;-67
2022/08/28 03:51:07;;;;;;;5.93;2.30;;;18.20;62.90;;;;;;5090313;28;20063;-67
2022/08/28 03:53:33;;;;;;;6.80;2.15;;;18.20;63.00;;;;;;5088726;28;20016;-65
2022/08/28 03:55:59;;;;;;;7.97;2.72;;;18.20;63.00;;;;;;5091638;28;20467;-66
2022/08/28 03:58:26;;;;;;;8.30;2.42;;;18.20;63.00;;;;;;5071465;28;20091;-66
2022/08/28 04:00:51;;;;;;;8.98;2.60;;;18.20;63.10;;;;;;5091376;28;20119;-65
2022/08/28 04:03:18;;;;;;;9.70;2.40;;;18.20;63.10;;;;;;5089760;28;20078;-65
2022/08/28 04:05:45;;;;;;;8.93;2.80;;;18.10;63.20;;;;;;5090748;28;20024;-65
2022/08/28 04:08:19;;;;;;;9.38;2.40;;;18.10;63.20;;;;;;5086583;28;20056;-65
2022/08/28 04:10:46;;;;;;;6.65;2.58;;;18.10;63.30;;;;;;5073734;28;20029;-66
2022/08/28 04:13:14;;;;;;;11.88;3.00;;;18.10;63.30;;;;;;5092768;28;20040;-65
2022/08/28 04:15:40;;;;;;;9.45;2.50;;;18.10;63.40;;;;;;5071136;28;20028;-65
2022/08/28 04:18:06;;;;;;;6.53;2.28;;;18.10;63.40;;;;;;5091934;28;20030;-66
2022/08/28 04:20:32;;;;;;;10.27;2.78;;;18.10;63.40;;;;;;5072735;28;20495;-65
2022/08/28 04:22:58;;;;;;;7.18;2.58;;;18.10;63.40;;;;;;5093460;28;20024;-65
2022/08/28 04:25:24;;;;;;;8.95;2.80;;;18.10;63.50;;;;;;5070456;28;20033;-65
2022/08/28 04:27:50;;;;;;;8.95;2.60;;;18.10;63.50;;;;;;5085334;28;20414;-65
2022/08/28 04:30:16;;;;;;;8.77;2.70;;;18.10;63.60;;;;;;5088749;28;20028;-68
2022/08/28 04:32:42;;;;;;;9.55;2.70;;;18.00;63.60;;;;;;5091888;28;20036;-67
2022/08/28 04:35:10;;;;;;;6.57;2.40;;;18.00;63.70;;;;;;5085789;28;20033;-67
2022/08/28 04:37:37;;;;;;;7.25;2.75;;;18.00;63.80;;;;;;5078453;28;20019;-67
2022/08/28 04:40:08;;;;;;;9.55;2.95;;;18.00;63.80;;;;;;5084395;28;20032;-67
2022/08/28 04:42:34;;;;;;;9.23;2.60;;;18.00;63.80;;;;;;5080869;28;20032;-65
2022/08/28 04:45:00;;;;;;;8.57;2.60;;;18.00;63.80;;;;;;5083415;28;20023;-66
2022/08/28 04:47:26;;;;;;;10.95;2.50;;;18.00;63.80;;;;;;5075739;28;20032;-65
2022/08/28 04:49:53;;;;;;;11.88;2.60;;;18.00;63.80;;;;;;5079152;28;20035;-67
2022/08/28 04:52:19;;;;;;;11.32;3.50;;;18.00;63.90;;;;;;5082246;28;20028;-68
2022/08/28 04:54:44;;;;;;;8.73;2.80;;;17.90;63.80;;;;;;5068303;28;20020;-67
2022/08/28 04:57:10;;;;;;;10.02;2.80;;;17.90;63.90;;;;;;5088710;28;20357;-67
2022/08/28 04:59:35;;;;;;;8.40;2.83;;;18.00;64.00;;;;;;5089664;28;20032;-67
2022/08/28 05:02:02;;;;;;;7.60;2.67;;;17.90;64.00;;;;;;5092004;28;20436;-66
2022/08/28 05:04:27;;;;;;;6.93;2.38;;;18.00;64.00;;;;;;5080242;28;20032;-67
2022/08/28 05:06:53;;;;;;;8.60;2.83;;;18.00;64.10;;;;;;5089248;28;20084;-67
2022/08/28 05:09:20;;;;;;;9.02;2.88;;;17.90;64.00;;;;;;5082588;28;20035;-67
2022/08/28 05:11:47;;;;;;;6.65;2.75;;;17.90;64.00;;;;;;5090841;28;20055;-65
2022/08/28 05:14:13;;;;;;;7.32;2.78;;;17.90;64.10;;;;;;5093649;28;20039;-65
2022/08/28 05:16:48;;;;;;;9.52;2.42;;;18.00;64.10;;;;;;5094882;28;20369;-65
2022/08/28 05:19:16;;;;;;;8.15;2.53;;;18.00;64.10;;;;;;5078826;28;20041;-65
2022/08/28 05:21:42;;;;;;;8.70;3.00;;;17.90;64.00;;;;;;5073737;28;20159;-67
2022/08/28 05:24:09;;;;;;;8.82;3.42;;;18.00;64.10;;;;;;5076424;28;20035;-67
2022/08/28 05:26:36;;;;;;;8.07;2.45;;;18.00;64.10;;;;;;5093930;28;20429;-66
2022/08/28 05:29:03;;;;;;;9.82;2.70;;;18.00;64.10;;;;;;5077450;28;20032;-67
2022/08/28 05:31:30;;;;;;;9.07;2.70;;;18.00;64.10;;;;;;5076338;28;20459;-67
2022/08/28 05:33:58;;;;;;;8.50;2.60;;;18.00;64.10;;;;;;5086947;28;20030;-67
2022/08/28 05:36:25;;;;;;;7.25;2.45;;;18.00;64.20;;;;;;5075771;28;20028;-67
2022/08/28 05:38:55;;;;;;;9.45;2.60;;;18.00;64.10;;;;;;5093140;28;20025;-67
2022/08/28 05:41:24;;;;;;;6.65;2.35;;;18.00;64.10;;;;;;5091974;28;20314;-67
2022/08/28 05:43:51;;;;;;;9.63;2.67;;;18.00;64.10;;;;;;5092056;28;20122;-67
2022/08/28 05:46:17;;;;;;;8.85;2.97;;;18.10;64.10;;;;;;5078846;28;20457;-67
2022/08/28 05:48:44;;;;;;;7.95;2.58;;;18.10;64.00;;;;;;5088739;28;20042;-65
2022/08/28 05:51:15;;;;;;;7.78;2.28;;;18.10;64.00;;;;;;5077447;28;20337;-65
2022/08/28 05:53:42;;;;;;;7.82;2.70;;;18.20;64.00;;;;;;5092710;28;20035;-65
2022/08/28 05:56:11;;;;;;;11.70;2.92;;;18.20;63.90;;;;;;5085456;28;20024;-65
2022/08/28 05:58:39;;;;;;;7.35;2.38;;;18.20;63.90;;;;;;5087761;28;20111;-65
2022/08/28 06:01:06;;;;;;;8.82;2.65;;;18.30;63.80;;;;;;5091793;28;20035;-67
2022/08/28 06:03:32;;;;;;;7.38;2.10;;;18.30;63.80;;;;;;5093706;28;20470;-65
2022/08/28 06:05:59;;;;;;;6.43;2.60;;;18.40;63.70;;;;;;5087684;28;20108;-65
2022/08/28 06:08:26;;;;;;;10.23;2.67;;;18.40;63.60;;;;;;5070521;28;20028;-64
2022/08/28 06:10:51;;;;;;;8.57;2.40;;;18.40;63.70;;;;;;5079071;28;20032;-65
2022/08/28 06:13:17;;;;;;;8.18;2.50;;;18.50;63.60;;;;;;5082108;28;20105;-67
2022/08/28 06:15:46;;;;;;;8.10;2.63;;;18.70;63.40;;;;;;5092937;28;20052;-65
2022/08/28 06:18:13;;;;;;;7.25;2.15;;;18.80;63.00;;;;;;5086149;28;20166;-65
2022/08/28 06:20:41;;;;;;;7.15;2.33;;;19.20;62.50;;;;;;5087801;28;20028;-68
2022/08/28 06:23:08;;;;;;;6.30;2.03;;;20.10;61.00;;;;;;5059465;28;20067;-65
2022/08/28 06:25:38;;;;;;;6.85;2.03;;;21.00;59.10;;;;;;5088869;28;20043;-67
2022/08/28 06:28:04;;;;;;;8.18;2.33;;;21.80;57.30;;;;;;5083035;28;20467;-69
2022/08/28 06:30:30;;;;;;;8.00;2.67;;;22.40;56.10;;;;;;5070660;28;20424;-69
2022/08/28 06:32:56;;;;;;;8.48;2.40;;;22.80;55.20;;;;;;5057760;28;20568;-69
2022/08/28 06:35:22;;;;;;;6.40;2.00;;;22.80;54.90;;;;;;5090088;28;20066;-67
2022/08/28 06:37:48;;;;;;;9.98;2.50;;;22.70;55.00;;;;;;5095635;28;20354;-67
2022/08/28 06:40:14;;;;;;;5.68;1.88;;;22.50;55.10;;;;;;5093159;28;20039;-67
2022/08/28 06:42:40;;;;;;;7.18;2.22;;;22.40;55.30;;;;;;5094669;28;20144;-68
2022/08/28 06:45:06;;;;;;;8.45;2.85;;;22.30;55.50;;;;;;5074522;28;20115;-69
2022/08/28 06:47:32;;;;;;;6.60;2.13;;;22.20;55.50;;;;;;5095462;28;20024;-69
2022/08/28 06:49:57;;;;;;;8.40;2.70;;;22.20;55.50;;;;;;5076579;28;20161;-69
2022/08/28 06:52:23;;;;;;;10.70;2.42;;;22.10;55.40;;;;;;5095200;28;20360;-69
2022/08/28 06:54:48;;;;;;;8.00;2.63;;;22.20;55.30;;;;;;5091320;28;20250;-69
2022/08/28 06:57:14;;;;;;;7.45;2.20;;;22.20;55.20;;;;;;5072059;28;20032;-68
2022/08/28 06:59:40;;;;;;;7.30;2.33;;;22.20;55.00;;;;;;5093742;28;20020;-68
2022/08/28 07:02:06;;;;;;;6.90;2.20;;;22.20;54.80;;;;;;5094687;28;20020;-67
2022/08/28 07:04:32;;;;;;;6.93;2.20;;;22.30;54.70;;;;;;5090401;28;20020;-68
2022/08/28 07:06:58;;;;;;;7.15;1.98;;;22.40;54.60;;;;;;5089768;28;20025;-67
2022/08/28 07:09:23;;;;;;;7.45;2.20;;;22.40;54.60;;;;;;5089943;28;20110;-67
2022/08/28 07:11:50;;;;;;;8.05;2.40;;;22.50;54.30;;;;;;5071633;28;20044;-67
2022/08/28 07:14:15;;;;;;;6.97;2.17;;;22.60;54.10;;;;;;5085366;28;20051;-69
2022/08/28 07:16:43;;;;;;;8.23;2.28;;;22.70;53.70;;;;;;5088954;28;20020;-67
2022/08/28 07:19:10;;;;;;;7.55;2.22;;;22.80;53.60;;;;;;5088272;28;20115;-69
2022/08/28 07:21:40;;;;;;;5.65;2.03;;;22.80;53.40;;;;;;5092306;28;20024;-69
2022/08/28 07:24:08;;;;;;;7.32;2.13;;;22.90;53.40;;;;;;5071487;28;20069;-67
2022/08/28 07:26:34;;;;;;;9.13;2.15;;;23.00;53.10;;;;;;5083228;28;20023;-68
2022/08/28 07:29:02;;;;;;;3.67;1.45;;;23.10;52.70;;;;;;5083579;28;20387;-69
2022/08/28 07:31:27;;;;;;;7.57;2.10;;;23.20;52.40;;;;;;5067777;28;20032;-68
2022/08/28 07:33:54;;;;;;;5.25;2.00;;;23.30;52.30;;;;;;5068347;28;20050;-70
2022/08/28 07:36:23;;;;;;;5.47;1.90;;;23.40;52.10;;;;;;5089407;28;20040;-68
2022/08/28 07:38:50;;;;;;;6.32;1.83;;;23.50;51.80;;;;;;5084531;28;20035;-69
2022/08/28 07:41:19;;;;;;;7.82;2.13;;;23.50;51.50;;;;;;5091175;28;20387;-68
2022/08/28 07:46:29;;;;;;;6.60;2.00;;;23.80;50.90;;;;;;5089794;28;20035;-69
2022/08/28 07:48:57;;;;;;;5.82;1.75;;;23.80;50.70;;;;;;5091317;28;20028;-69
2022/08/28 07:51:24;;;;;;;8.98;2.20;;;24.00;50.50;;;;;;5090398;28;20445;-69
2022/08/28 07:53:50;;;;;;;6.53;2.08;;;24.10;50.20;;;;;;5091013;28;20038;-69
2022/08/28 07:56:15;;;;;;;6.88;1.80;;;24.20;50.00;;;;;;5090737;28;20031;-69
2022/08/28 07:58:41;;;;;;;5.25;1.73;;;24.40;49.70;;;;;;5064857;28;20052;-69
2022/08/28 08:01:07;;;;;;;9.55;1.90;;;24.50;49.20;;;;;;5054133;28;20028;-69
2022/08/28 08:03:33;;;;;;;7.57;1.85;;;24.60;48.80;;;;;;5055284;28;20027;-69
2022/08/28 08:06:02;;;;;;;7.57;1.48;;;24.60;48.50;;;;;;5087922;28;20537;-69
2022/08/28 08:08:29;;;;;;;5.60;1.83;;;24.70;48.10;;;;;;5061294;28;20024;-69
2022/08/28 08:11:10;;;;;;;4.97;1.77;;;24.80;47.80;;;;;;5072443;28;20027;-69
2022/08/28 08:13:37;;;;;;;5.38;1.67;;;24.90;47.50;;;;;;5083875;28;20101;-70
2022/08/28 08:16:06;;;;;;;8.65;2.03;;;24.90;47.30;;;;;;5087602;28;20044;-71
2022/08/28 08:18:32;;;;;;;5.25;1.67;;;25.00;47.20;;;;;;5069709;28;20081;-71
2022/08/28 08:20:58;;;;;;;5.80;1.85;;;25.10;47.10;;;;;;5089629;28;20047;-66
2022/08/28 08:23:24;;;;;;;5.45;1.63;;;25.10;46.70;;;;;;5088856;28;20028;-68
2022/08/28 08:25:59;;;;;;;6.50;1.65;;;25.10;46.30;;;;;;5090161;28;20123;-68
2022/08/28 08:28:26;;;;;;;4.30;1.60;;;25.20;46.00;;;;;;5089996;28;21601;-68
2022/08/28 08:31:03;;;;;;;7.20;1.95;;;25.30;46.00;;;;;;5088862;28;20024;-70
2022/08/28 08:33:29;;;;;;;5.68;1.48;;;25.50;45.60;;;;;;5088255;28;20032;-68
2022/08/28 08:35:54;;;;;;;5.95;1.33;;;25.70;45.60;;;;;;5065393;28;20227;-68
2022/08/28 08:38:20;;;;;;;3.83;1.30;;;25.80;45.20;;;;;;5090357;28;20056;-68
2022/08/28 08:40:47;;;;;;;6.40;1.83;;;25.80;44.90;;;;;;5056829;28;20028;-68
2022/08/28 08:43:15;;;;;;;5.63;1.75;;;25.90;44.70;;;;;;5072458;28;20043;-68
2022/08/28 08:45:43;;;;;;;5.25;1.35;;;26.00;44.60;;;;;;5089205;28;20043;-69
2022/08/28 08:48:19;;;;;;;4.18;1.42;;;26.00;44.40;;;;;;5071230;28;20092;-68
2022/08/28 08:50:46;;;;;;;5.18;1.65;;;26.10;44.10;;;;;;5088987;28;20468;-69
2022/08/28 08:53:33;;;;;;;4.38;1.40;;;26.20;44.00;;;;;;5088813;28;20020;-68
2022/08/28 08:55:59;;;;;;;6.78;2.15;;;26.10;43.70;;;;;;5068259;28;20028;-69
2022/08/28 08:58:29;;;;;;;4.30;1.45;;;25.90;43.90;;;;;;5089115;28;20400;-68
2022/08/28 09:01:31;;;;;;;6.30;2.05;;;25.90;43.90;;;;;;5087647;28;20115;-68
2022/08/28 09:04:27;;;;;;;3.25;1.20;;;25.70;43.90;;;;;;5083082;28;20040;-68
2022/08/28 09:07:04;;;;;;;6.47;1.60;;;25.70;44.10;;;;;;5087705;28;20122;-68
2022/08/28 09:09:34;;;;;;;6.43;1.50;;;25.50;44.20;;;;;;5054652;28;20035;-69
2022/08/28 09:12:03;;;;;;;7.53;1.85;;;25.30;44.50;;;;;;5085506;28;20109;-68
2022/08/28 09:14:39;;;;;;;3.80;1.52;;;25.40;44.40;;;;;;5070481;28;20035;-68
2022/08/28 09:17:07;;;;;;;5.68;1.50;;;25.50;43.90;;;;;;5088022;28;20042;-69
2022/08/28 09:19:34;;;;;;;8.40;2.03;;;25.80;43.80;;;;;;5070453;28;20016;-68
2022/08/28 09:22:00;;;;;;;3.75;1.50;;;26.00;43.60;;;;;;5073061;28;20032;-69
2022/08/28 09:24:29;;;;;;;5.30;1.40;;;26.20;43.10;;;;;;5088418;28;20078;-70
2022/08/28 09:26:58;;;;;;;4.95;1.45;;;26.40;42.90;;;;;;5088772;28;20044;-70
2022/08/28 09:29:31;;;;;;;5.10;1.73;;;26.50;42.70;;;;;;5085946;28;20088;-69
2022/08/28 09:32:13;;;;;;;5.18;1.65;;;26.60;42.50;;;;;;5063445;28;20393;-71
2022/08/28 09:34:56;;;;;;;5.90;1.58;;;26.80;42.30;;;;;;5066153;28;20532;-70
2022/08/28 09:37:27;;;;;;;5.65;1.50;;;26.70;42.20;;;;;;5087379;28;20057;-71
2022/08/28 09:40:22;;;;;;;4.35;1.50;;;26.40;42.30;;;;;;5084932;28;20039;-70
2022/08/28 09:45:50;;;;;;;8.35;2.05;;;26.40;42.60;;;;;;5087795;28;20058;-71
2022/08/28 09:48:20;;;;;;;4.28;1.30;;;26.60;42.40;;;;;;5087311;28;20056;-70
2022/08/28 09:51:02;;;;;;;5.13;1.40;;;26.50;42.40;;;;;;5087515;28;20024;-69
2022/08/28 09:53:30;;;;;;;3.83;1.45;;;26.20;42.50;;;;;;5086616;28;20286;-69
2022/08/28 09:56:27;;;;;;;6.78;1.88;;;25.90;42.90;;;;;;5084473;28;20032;-70
2022/08/28 09:58:58;;;;;;;4.82;1.30;;;25.70;43.00;;;;;;5070152;28;20115;-69
2022/08/28 10:01:40;;;;;;;4.88;1.50;;;25.80;42.90;;;;;;5086322;28;20055;-69
2022/08/28 10:04:30;;;;;;;7.32;1.90;;;26.20;42.70;;;;;;5063058;28;20244;-69
2022/08/28 10:07:11;;;;;;;4.70;1.45;;;26.20;42.60;;;;;;5070766;28;20059;-69
2022/08/28 10:10:08;;;;;;;5.30;1.50;;;26.40;42.50;;;;;;5069195;28;20028;-76
2022/08/28 10:13:15;;;;;;;3.83;1.25;;;26.60;42.00;;;;;;5079352;28;20056;-70
2022/08/28 10:15:40;;;;;;;5.75;1.80;;;26.90;41.80;;;;;;5003887;28;20124;-71
2022/08/28 10:18:27;;;;;;;4.20;1.25;;;27.20;41.20;;;;;;5017798;28;20117;-70
2022/08/28 10:21:01;;;;;;;4.90;1.50;;;27.30;40.50;;;;;;5013181;28;20112;-70
2022/08/28 10:23:54;;;;;;;4.22;1.05;;;27.30;40.40;;;;;;5015484;28;20116;-70
2022/08/28 10:26:49;;;;;;;4.35;1.40;;;27.60;40.40;;;;;;5017086;28;20029;-70
2022/08/28 10:29:52;;;;;;;4.65;1.30;;;27.70;40.10;;;;;;5018026;28;20477;-70
2022/08/28 10:32:48;;;;;;;4.63;1.38;;;27.80;40.70;;;;;;5019198;28;20099;-72
2022/08/28 10:35:24;;;;;;;3.67;1.30;;;27.90;39.80;;;;;;5017958;28;20191;-70
2022/08/28 10:38:00;;;;;;;4.40;1.20;;;27.80;39.80;;;;;;5015852;28;20131;-70
2022/08/28 10:40:40;;;;;;;4.07;1.20;;;27.90;39.70;;;;;;5020857;28;20440;-70
2022/08/28 10:43:18;;;;;;;5.45;1.40;;;27.90;39.50;;;;;;5018654;28;20189;-70
2022/08/28 10:45:46;;;;;;;3.72;1.30;;;28.00;39.30;;;;;;5015983;28;20029;-70
2022/08/28 10:48:25;;;;;;;4.03;1.20;;;28.10;39.30;;;;;;5009418;28;20030;-70
2022/08/28 10:51:06;;;;;;;7.75;1.40;;;28.10;39.00;;;;;;5082373;28;20044;-70
2022/08/28 10:53:39;;;;;;;3.87;1.40;;;28.20;39.00;;;;;;5085205;28;20032;-70
2022/08/28 10:56:48;;;;;;;3.80;1.20;;;28.20;38.90;;;;;;5069340;28;20498;-69
2022/08/28 10:59:14;;;;;;;5.00;1.70;;;28.20;38.70;;;;;;5085145;28;20070;-69
2022/08/28 11:01:41;;;;;;;3.55;1.40;;;28.20;38.80;;;;;;5066710;28;20429;-70
2022/08/28 11:04:16;;;;;;;5.13;1.45;;;28.00;38.80;;;;;;5083530;28;20330;-70
2022/08/28 11:06:44;;;;;;;4.88;1.65;;;27.80;39.00;;;;;;5060363;28;20035;-69
2022/08/28 11:09:40;;;;;;;3.65;1.17;;;27.80;39.10;;;;;;5086509;28;20039;-70
2022/08/28 11:12:09;;;;;;;3.03;1.15;;;27.70;39.10;;;;;;5067118;28;20035;-70
2022/08/28 11:14:36;;;;;;;3.22;1.10;;;27.60;39.40;;;;;;5084021;28;20074;-70
2022/08/28 11:17:04;;;;;;;5.68;1.90;;;27.40;39.70;;;;;;5068240;28;20135;-70
2022/08/28 11:19:56;;;;;;;6.53;1.92;;;27.10;39.80;;;;;;5082204;28;20036;-70
2022/08/28 11:22:22;;;;;;;4.00;1.50;;;26.80;40.00;;;;;;5069114;28;20170;-70
2022/08/28 11:24:55;;;;;;;5.07;1.42;;;26.50;40.40;;;;;;5065088;28;20107;-69
2022/08/28 11:27:32;;;;;;;5.22;1.70;;;26.50;40.50;;;;;;5084938;28;20089;-69
2022/08/28 11:30:01;;;;;;;3.80;1.67;;;26.60;40.30;;;;;;5081697;28;20032;-70
2022/08/28 11:32:33;;;;;;;4.53;1.30;;;26.70;40.00;;;;;;5067590;28;20143;-69
2022/08/28 11:35:39;;;;;;;3.33;1.20;;;26.60;40.10;;;;;;5052507;28;20066;-68
2022/08/28 11:38:05;;;;;;;6.72;1.75;;;26.50;40.20;;;;;;5050461;28;20029;-70
2022/08/28 11:40:31;;;;;;;4.40;1.73;;;26.30;40.50;;;;;;5069508;28;20111;-69
2022/08/28 11:43:14;;;;;;;3.63;1.23;;;26.20;40.50;;;;;;5060679;28;20112;-69
2022/08/28 11:45:46;;;;;;;5.47;1.58;;;26.30;40.30;;;;;;5085504;28;20035;-69
2022/08/28 11:48:35;;;;;;;6.15;1.77;;;26.30;40.20;;;;;;5069551;28;20035;-69
2022/08/28 11:51:35;;;;;;;5.10;1.40;;;26.30;40.30;;;;;;5066427;28;20043;-69
2022/08/28 11:54:42;;;;;;;4.50;1.42;;;26.20;40.50;;;;;;5063511;28;20032;-70
2022/08/28 11:57:37;;;;;;;5.95;1.60;;;26.20;40.70;;;;;;5054058;28;20048;-70
2022/08/28 12:00:07;;;;;;;3.67;1.23;;;26.40;40.60;;;;;;5066595;28;20040;-70
2022/08/28 12:02:40;;;;;;;6.93;1.63;;;26.50;40.50;;;;;;5049046;28;20017;-69
2022/08/28 12:05:14;;;;;;;4.30;1.40;;;26.40;40.30;;;;;;5061988;28;20028;-69
2022/08/28 12:07:45;;;;;;;3.10;1.20;;;26.20;40.40;;;;;;5078701;28;20039;-70
2022/08/28 12:10:23;;;;;;;;;;;26.00;40.60;;;;;;5079188;28;20101;-69
2022/08/28 12:12:51;;;;;;;7.20;1.65;;;25.90;41.50;;;;;;5079042;28;20610;-69
2022/08/28 12:15:28;;;;;;;5.50;1.80;;;25.80;41.20;;;;;;5079458;28;20032;-71
2022/08/28 12:18:09;;;;;;;4.03;1.40;;;25.70;41.10;;;;;;5076056;28;20045;-69
2022/08/28 12:20:50;;;;;;;5.88;1.60;;;25.60;41.10;;;;;;5077704;28;20435;-69
2022/08/28 12:23:22;;;;;;;3.20;1.30;;;25.80;41.30;;;;;;5079240;28;20409;-69
2022/08/28 12:25:56;;;;;;;5.60;1.55;;;26.00;41.00;;;;;;5078450;28;20150;-69
2022/08/28 12:28:30;;;;;;;4.22;1.27;;;26.10;40.80;;;;;;5060684;28;20046;-70
2022/08/28 12:32:09;;;;;;;4.90;1.55;;;26.00;40.70;;;;;;5057447;28;20032;-70
2022/08/28 12:34:19;;;;;;;5.07;1.35;;;25.90;40.50;;;;;;5058358;28;20097;-69
2022/08/28 12:36:45;;;;;;;4.43;1.45;;;25.80;40.70;;;;;;5077802;28;20039;-68
2022/08/28 12:39:17;;;;;;;3.67;1.20;;;25.90;40.40;;;;;;5046532;28;20032;-69
2022/08/28 12:41:44;;;;;;;5.75;1.60;;;26.10;40.00;;;;;;5078179;28;20074;-70
2022/08/28 12:44:13;;;;;;;3.15;1.10;;;26.10;40.00;;;;;;5076311;28;20106;-70
2022/08/28 12:46:42;;;;;;;6.72;1.55;;;26.00;39.80;;;;;;5062833;28;20032;-70
2022/08/28 12:49:28;;;;;;;5.70;1.70;;;25.90;39.90;;;;;;5060681;28;20033;-70
2022/08/28 12:52:22;;;;;;;4.95;1.30;;;25.80;39.70;;;;;;5077938;28;20047;-69
2022/08/28 12:54:49;;;;;;;3.45;1.40;;;25.70;39.60;;;;;;5082357;28;20039;-72
2022/08/28 12:57:20;;;;;;;4.20;1.20;;;25.60;39.80;;;;;;5071685;28;20497;-68
2022/08/28 12:59:54;;;;;;;4.40;1.50;;;25.50;39.90;;;;;;5086301;28;20455;-69
2022/08/28 13:02:27;;;;;;;4.03;1.27;;;25.50;40.10;;;;;;5086473;28;20027;-69
2022/08/28 13:05:04;;;;;;;4.00;1.30;;;25.40;40.10;;;;;;5089431;28;20346;-69
2022/08/28 13:07:36;;;;;;;4.32;1.42;;;25.40;40.00;;;;;;5076944;28;20452;-69
2022/08/28 13:10:34;;;;;;;3.78;1.23;;;25.40;40.10;;;;;;5076407;28;20125;-69
2022/08/28 13:13:21;;;;;;;5.72;1.48;;;25.50;40.20;;;;;;5075480;28;20048;-70
2022/08/28 13:15:52;;;;;;;5.43;1.60;;;25.50;40.20;;;;;;5097581;28;20113;-69